createdAt,value
2018-07-14T00:01:35.526Z,0.00
2018-07-14T00:02:35.468Z,0.00
2018-07-14T00:04:28.261Z,0.00
2018-07-14T00:05:28.186Z,0.00
2018-07-14T00:07:20.952Z,0.00
2018-07-14T00:08:20.883Z,0.00
2018-07-14T00:10:13.680Z,0.00
2018-07-14T00:11:13.617Z,0.00
2018-07-14T00:13:06.404Z,0.00
2018-07-14T00:14:06.329Z,0.00
2018-07-14T00:15:59.125Z,0.00
2018-07-14T00:16:59.059Z,0.00
2018-07-14T00:18:51.865Z,0.00
2018-07-14T00:19:51.773Z,0.00
2018-07-14T00:21:44.588Z,0.00
2018-07-14T00:22:44.497Z,0.00
2018-07-14T00:24:37.282Z,0.00
2018-07-14T00:25:37.194Z,0.00
2018-07-14T00:27:29.985Z,0.00
2018-07-14T00:28:29.923Z,0.00
2018-07-14T00:30:22.725Z,0.00
2018-07-14T00:31:22.648Z,0.00
2018-07-14T00:33:15.445Z,0.00
2018-07-14T00:34:15.359Z,0.00
2018-07-14T00:36:08.161Z,0.00
2018-07-14T00:37:08.084Z,0.00
2018-07-14T00:39:00.901Z,0.00
2018-07-14T00:40:00.825Z,0.00
2018-07-14T00:41:53.629Z,0.00
2018-07-14T00:42:53.555Z,0.00
2018-07-14T00:44:46.350Z,0.00
2018-07-14T00:45:46.280Z,0.00
2018-07-14T00:47:39.093Z,0.00
2018-07-14T00:48:39.029Z,0.00
2018-07-14T00:50:31.821Z,0.00
2018-07-14T00:51:31.746Z,0.00
2018-07-14T00:53:24.520Z,0.00
2018-07-14T00:54:24.457Z,0.00
2018-07-14T00:56:17.252Z,0.00
2018-07-14T00:57:17.175Z,0.00
2018-07-14T00:59:09.943Z,0.00
2018-07-14T01:00:09.875Z,0.00
2018-07-14T01:02:02.647Z,0.00
2018-07-14T01:03:02.571Z,0.00
2018-07-14T01:04:55.361Z,0.00
2018-07-14T01:05:55.278Z,0.00
2018-07-14T01:07:48.068Z,0.00
2018-07-14T01:08:48.005Z,0.00
2018-07-14T01:10:40.787Z,0.00
2018-07-14T01:11:40.715Z,0.00
2018-07-14T01:13:33.488Z,0.00
2018-07-14T01:14:33.424Z,0.00
2018-07-14T01:16:26.211Z,0.00
2018-07-14T01:17:26.125Z,0.00
2018-07-14T01:19:18.934Z,0.00
2018-07-14T01:20:18.864Z,0.00
2018-07-14T01:22:11.637Z,0.00
2018-07-14T01:23:11.571Z,0.00
2018-07-14T01:25:04.349Z,0.00
2018-07-14T01:26:04.281Z,0.00
2018-07-14T01:27:57.052Z,0.00
2018-07-14T01:28:56.991Z,0.00
2018-07-14T01:30:49.774Z,0.00
2018-07-14T01:31:49.693Z,0.00
2018-07-14T01:33:42.474Z,0.00
2018-07-14T01:34:42.415Z,0.00
2018-07-14T01:36:35.203Z,0.00
2018-07-14T01:37:35.196Z,0.00
2018-07-14T01:39:27.904Z,0.00
2018-07-14T01:40:27.890Z,0.00
2018-07-14T01:42:20.621Z,0.00
2018-07-14T01:43:20.561Z,0.00
2018-07-14T01:45:13.325Z,0.00
2018-07-14T01:46:13.252Z,0.00
2018-07-14T01:48:06.044Z,0.00
2018-07-14T01:49:05.964Z,0.00
2018-07-14T01:50:58.761Z,0.00
2018-07-14T01:51:58.682Z,0.00
2018-07-14T01:53:51.470Z,0.00
2018-07-14T01:54:51.397Z,0.00
2018-07-14T01:56:44.188Z,0.00
2018-07-14T01:57:44.112Z,0.00
2018-07-14T01:59:36.923Z,0.00
2018-07-14T02:00:36.899Z,0.00
2018-07-14T02:02:29.614Z,0.00
2018-07-14T02:03:29.545Z,0.00
2018-07-14T02:05:22.412Z,0.00
2018-07-14T02:06:22.267Z,0.00
2018-07-14T02:08:15.046Z,0.00
2018-07-14T02:09:14.978Z,0.00
2018-07-14T02:11:07.826Z,0.00
2018-07-14T02:12:07.756Z,0.00
2018-07-14T02:14:00.527Z,0.00
2018-07-14T02:15:00.465Z,0.00
2018-07-14T02:16:53.275Z,0.00
2018-07-14T02:17:53.171Z,0.00
2018-07-14T02:19:45.954Z,0.00
2018-07-14T02:20:45.882Z,0.00
2018-07-14T02:22:38.681Z,0.00
2018-07-14T02:23:38.577Z,0.00
2018-07-14T02:25:31.369Z,0.00
2018-07-14T02:26:31.299Z,0.00
2018-07-14T02:28:24.113Z,0.00
2018-07-14T02:29:24.007Z,0.00
2018-07-14T02:31:16.821Z,0.00
2018-07-14T02:32:16.713Z,0.00
2018-07-14T02:34:09.484Z,0.00
2018-07-14T02:35:09.425Z,0.00
2018-07-14T02:37:02.254Z,0.00
2018-07-14T02:38:02.173Z,0.00
2018-07-14T02:39:54.974Z,0.00
2018-07-14T02:40:54.898Z,0.00
2018-07-14T02:42:47.662Z,0.00
2018-07-14T02:43:47.595Z,0.00
2018-07-14T02:45:40.383Z,0.00
2018-07-14T02:46:40.314Z,0.00
2018-07-14T02:48:33.086Z,0.00
2018-07-14T02:49:33.010Z,0.00
2018-07-14T02:51:25.800Z,0.00
2018-07-14T02:52:25.723Z,0.00
2018-07-14T02:54:18.489Z,0.00
2018-07-14T02:55:18.420Z,0.00
2018-07-14T02:57:11.205Z,0.00
2018-07-14T02:58:11.132Z,0.00
2018-07-14T03:00:03.902Z,0.00
2018-07-14T03:01:03.841Z,0.00
2018-07-14T03:02:56.613Z,5.63
2018-07-14T03:03:56.540Z,5.63
2018-07-14T03:05:49.332Z,5.63
2018-07-14T03:06:49.263Z,5.63
2018-07-14T03:08:42.024Z,5.63
2018-07-14T03:09:42.025Z,5.63
2018-07-14T03:11:34.741Z,5.63
2018-07-14T03:12:34.686Z,11.25
2018-07-14T03:14:27.453Z,11.25
2018-07-14T03:15:27.376Z,11.25
2018-07-14T03:17:20.163Z,16.88
2018-07-14T03:18:20.083Z,16.88
2018-07-14T03:20:12.848Z,22.50
2018-07-14T03:21:12.791Z,28.13
2018-07-14T03:23:05.564Z,28.13
2018-07-14T03:24:05.491Z,33.75
2018-07-14T03:25:58.272Z,39.38
2018-07-14T03:26:58.202Z,39.38
2018-07-14T03:28:50.970Z,39.38
2018-07-14T03:29:50.901Z,45.00
2018-07-14T03:31:43.697Z,45.00
2018-07-14T03:32:43.620Z,50.63
2018-07-14T03:34:36.404Z,50.63
2018-07-14T03:35:36.344Z,50.63
2018-07-14T03:37:29.126Z,56.25
2018-07-14T03:38:29.050Z,56.25
2018-07-14T03:40:21.832Z,61.88
2018-07-14T03:41:21.765Z,61.88
2018-07-14T03:43:14.567Z,67.50
2018-07-14T03:44:14.486Z,67.50
2018-07-14T03:46:07.254Z,73.13
2018-07-14T03:47:07.181Z,73.13
2018-07-14T03:48:59.958Z,78.75
2018-07-14T03:49:59.884Z,84.38
2018-07-14T03:51:52.671Z,90.00
2018-07-14T03:52:52.601Z,90.00
2018-07-14T03:54:45.368Z,95.63
2018-07-14T03:55:45.296Z,101.25
2018-07-14T03:57:38.086Z,106.88
2018-07-14T03:58:38.012Z,112.50
2018-07-14T04:00:30.789Z,118.13
2018-07-14T04:01:30.724Z,123.75
2018-07-14T04:03:23.508Z,129.38
2018-07-14T04:04:23.436Z,135.00
2018-07-14T04:06:16.255Z,140.63
2018-07-14T04:07:16.156Z,140.63
2018-07-14T04:09:08.917Z,151.88
2018-07-14T04:10:08.899Z,151.88
2018-07-14T04:12:01.634Z,157.50
2018-07-14T04:13:01.581Z,163.13
2018-07-14T04:14:54.332Z,174.38
2018-07-14T04:15:54.266Z,180.00
2018-07-14T04:17:47.077Z,180.00
2018-07-14T04:18:46.997Z,180.00
2018-07-14T04:20:39.761Z,185.63
2018-07-14T04:21:39.706Z,185.63
2018-07-14T04:23:32.489Z,191.25
2018-07-14T04:24:32.410Z,196.88
2018-07-14T04:26:25.196Z,208.13
2018-07-14T04:27:25.121Z,213.75
2018-07-14T04:29:17.905Z,219.38
2018-07-14T04:30:17.845Z,225.00
2018-07-14T04:32:10.626Z,236.25
2018-07-14T04:33:10.554Z,241.88
2018-07-14T04:35:03.359Z,253.13
2018-07-14T04:36:03.271Z,258.75
2018-07-14T04:37:56.048Z,275.63
2018-07-14T04:38:55.970Z,270.00
2018-07-14T04:40:48.756Z,275.63
2018-07-14T04:41:48.678Z,281.25
2018-07-14T04:43:41.494Z,309.38
2018-07-14T04:44:41.393Z,309.38
2018-07-14T04:46:34.195Z,320.63
2018-07-14T04:47:34.137Z,331.88
2018-07-14T04:49:26.946Z,360.00
2018-07-14T04:50:26.832Z,360.00
2018-07-14T04:52:19.644Z,376.88
2018-07-14T04:53:19.564Z,405.00
2018-07-14T04:55:12.324Z,388.13
2018-07-14T04:56:12.285Z,416.25
2018-07-14T04:58:05.051Z,405.00
2018-07-14T04:59:04.985Z,433.13
2018-07-14T05:00:57.778Z,472.50
2018-07-14T05:01:57.724Z,399.38
2018-07-14T05:03:50.526Z,399.38
2018-07-14T05:04:50.446Z,354.38
2018-07-14T05:06:43.239Z,331.88
2018-07-14T05:07:43.204Z,365.63
2018-07-14T05:09:35.966Z,438.75
2018-07-14T05:10:35.866Z,376.88
2018-07-14T05:12:28.653Z,495.00
2018-07-14T05:13:28.575Z,410.63
2018-07-14T05:15:21.368Z,444.38
2018-07-14T05:16:21.289Z,427.50
2018-07-14T05:18:14.067Z,399.38
2018-07-14T05:19:13.994Z,427.50
2018-07-14T05:21:06.785Z,472.50
2018-07-14T05:22:06.726Z,371.25
2018-07-14T05:23:59.511Z,568.13
2018-07-14T05:24:59.451Z,421.88
2018-07-14T05:26:52.240Z,601.88
2018-07-14T05:27:52.172Z,618.75
2018-07-14T05:29:44.955Z,461.25
2018-07-14T05:30:44.888Z,472.50
2018-07-14T05:32:37.692Z,562.50
2018-07-14T05:33:37.621Z,568.13
2018-07-14T05:35:30.403Z,641.25
2018-07-14T05:36:30.331Z,658.13
2018-07-14T05:38:23.419Z,900.00
2018-07-14T05:39:23.092Z,821.25
2018-07-14T05:41:15.890Z,568.13
2018-07-14T05:42:15.836Z,596.25
2018-07-14T05:44:08.733Z,669.38
2018-07-14T05:45:08.575Z,1029.38
2018-07-14T05:47:01.358Z,2036.25
2018-07-14T05:48:01.287Z,1254.38
2018-07-14T05:49:54.073Z,849.38
2018-07-14T05:50:54.018Z,776.25
2018-07-14T05:52:46.816Z,838.13
2018-07-14T05:53:46.739Z,781.88
2018-07-14T05:55:39.524Z,990.00
2018-07-14T05:56:39.455Z,967.50
2018-07-14T05:58:32.288Z,714.38
2018-07-14T05:59:32.204Z,725.63
2018-07-14T06:01:24.978Z,697.50
2018-07-14T06:02:24.932Z,669.38
2018-07-14T06:04:17.712Z,669.38
2018-07-14T06:05:17.666Z,703.13
2018-07-14T06:07:10.432Z,832.50
2018-07-14T06:08:10.374Z,770.63
2018-07-14T06:10:03.150Z,815.63
2018-07-14T06:11:03.081Z,933.75
2018-07-14T06:12:55.873Z,1175.63
2018-07-14T06:13:55.800Z,1057.50
2018-07-14T06:15:48.621Z,3105.00
2018-07-14T06:16:48.571Z,3088.13
2018-07-14T06:18:41.371Z,2733.75
2018-07-14T06:19:41.411Z,2863.13
2018-07-14T06:21:34.097Z,2070.00
2018-07-14T06:22:34.031Z,1906.88
2018-07-14T06:24:26.803Z,1524.38
2018-07-14T06:25:26.740Z,1530.00
2018-07-14T06:27:19.542Z,1957.50
2018-07-14T06:28:19.485Z,2576.25
2018-07-14T06:30:12.304Z,2154.38
2018-07-14T06:31:12.280Z,1800.00
2018-07-14T06:33:05.034Z,1681.88
2018-07-14T06:34:05.002Z,3166.88
2018-07-14T06:35:57.748Z,3335.63
2018-07-14T06:36:57.726Z,2902.50
2018-07-14T06:38:50.492Z,1434.38
2018-07-14T06:39:50.428Z,1192.50
2018-07-14T06:41:43.232Z,1901.25
2018-07-14T06:42:43.172Z,2598.75
2018-07-14T06:44:36.046Z,866.25
2018-07-14T06:45:35.928Z,939.38
2018-07-14T06:47:28.751Z,1726.88
2018-07-14T06:48:28.696Z,1085.63
2018-07-14T06:50:21.482Z,1012.50
2018-07-14T06:51:21.423Z,990.00
2018-07-14T06:53:14.212Z,804.38
2018-07-14T06:54:14.211Z,753.75
2018-07-14T06:56:06.939Z,2908.13
2018-07-14T06:57:06.873Z,1299.38
2018-07-14T06:58:59.709Z,1389.38
2018-07-14T06:59:59.608Z,3864.38
2018-07-14T07:01:52.404Z,3290.63
2018-07-14T07:02:52.346Z,1080.00
2018-07-14T07:04:45.172Z,2092.50
2018-07-14T07:05:45.096Z,3166.88
2018-07-14T07:07:37.918Z,3746.25
2018-07-14T07:08:37.844Z,3830.63
2018-07-14T07:10:30.622Z,3954.38
2018-07-14T07:11:30.582Z,3976.88
2018-07-14T07:13:23.362Z,1479.38
2018-07-14T07:14:23.300Z,1957.50
2018-07-14T07:16:16.146Z,4083.75
2018-07-14T07:17:16.092Z,3054.38
2018-07-14T07:19:08.908Z,1237.50
2018-07-14T07:20:08.806Z,2902.50
2018-07-14T07:22:01.627Z,4303.13
2018-07-14T07:23:01.569Z,4185.00
2018-07-14T07:24:54.368Z,3965.63
2018-07-14T07:25:54.295Z,4235.63
2018-07-14T07:27:47.140Z,2576.25
2018-07-14T07:28:47.069Z,1625.63
2018-07-14T07:30:39.851Z,1175.63
2018-07-14T07:31:39.835Z,3988.13
2018-07-14T07:33:32.646Z,2998.13
2018-07-14T07:34:32.599Z,3262.50
2018-07-14T07:36:25.659Z,2565.00
2018-07-14T07:37:25.302Z,4404.38
2018-07-14T07:39:18.126Z,4179.38
2018-07-14T07:40:18.058Z,2632.50
2018-07-14T07:42:10.868Z,3515.63
2018-07-14T07:43:10.877Z,4663.13
2018-07-14T07:45:03.623Z,4702.50
2018-07-14T07:46:03.548Z,4471.88
2018-07-14T07:47:56.372Z,3549.38
2018-07-14T07:48:56.296Z,3926.25
2018-07-14T07:50:49.109Z,1631.25
2018-07-14T07:51:49.050Z,1231.88
2018-07-14T07:53:41.858Z,2148.75
2018-07-14T07:54:41.797Z,2131.88
2018-07-14T07:56:34.626Z,1186.88
2018-07-14T07:57:34.550Z,1125.00
2018-07-14T07:59:27.351Z,2019.38
2018-07-14T08:00:27.296Z,1631.25
2018-07-14T08:02:20.084Z,1119.38
2018-07-14T08:03:20.071Z,4460.63
2018-07-14T08:05:12.829Z,3330.00
2018-07-14T08:06:12.767Z,1417.50
2018-07-14T08:08:05.566Z,1383.75
2018-07-14T08:09:05.513Z,3796.88
2018-07-14T08:10:58.355Z,1231.88
2018-07-14T08:11:58.310Z,3054.38
2018-07-14T08:13:51.128Z,4595.63
2018-07-14T08:14:51.066Z,4168.13
2018-07-14T08:16:43.899Z,4381.88
2018-07-14T08:17:43.854Z,4573.13
2018-07-14T08:19:36.673Z,4168.13
2018-07-14T08:20:36.605Z,4201.88
2018-07-14T08:22:29.474Z,4370.63
2018-07-14T08:23:29.416Z,4387.50
2018-07-14T08:25:22.276Z,4837.50
2018-07-14T08:26:22.207Z,3161.25
2018-07-14T08:28:15.016Z,4438.13
2018-07-14T08:29:14.961Z,4415.63
2018-07-14T08:31:07.796Z,4393.13
2018-07-14T08:32:07.725Z,4134.38
2018-07-14T08:34:00.553Z,4066.88
2018-07-14T08:35:00.478Z,2278.13
2018-07-14T08:36:53.309Z,4078.13
2018-07-14T08:37:53.229Z,2975.63
2018-07-14T08:39:46.566Z,4021.88
2018-07-14T08:40:46.514Z,3448.13
2018-07-14T08:42:39.315Z,2126.25
2018-07-14T08:43:39.285Z,3780.00
2018-07-14T08:45:32.096Z,2716.88
2018-07-14T08:46:32.037Z,4179.38
2018-07-14T08:48:24.889Z,3515.63
2018-07-14T08:49:24.792Z,4033.13
2018-07-14T08:51:17.705Z,4145.63
2018-07-14T08:52:17.589Z,3915.00
2018-07-14T08:54:10.401Z,4381.88
2018-07-14T08:55:10.349Z,4269.38
2018-07-14T08:57:03.200Z,3875.63
2018-07-14T08:58:03.194Z,3813.75
2018-07-14T08:59:55.942Z,4010.63
2018-07-14T09:00:55.890Z,4016.25
2018-07-14T09:02:48.740Z,4038.75
2018-07-14T09:03:48.708Z,4106.25
2018-07-14T09:05:41.525Z,3796.88
2018-07-14T09:06:41.464Z,3937.50
2018-07-14T09:08:34.331Z,4027.50
2018-07-14T09:09:34.273Z,3937.50
2018-07-14T09:11:27.085Z,3223.13
2018-07-14T09:12:27.029Z,2998.13
2018-07-14T09:14:19.868Z,2840.63
2018-07-14T09:15:19.798Z,2936.25
2018-07-14T09:17:12.615Z,1456.88
2018-07-14T09:18:12.570Z,2716.88
2018-07-14T09:20:05.398Z,4066.88
2018-07-14T09:21:05.353Z,3971.25
2018-07-14T09:22:58.180Z,3121.88
2018-07-14T09:23:58.124Z,3571.88
2018-07-14T09:25:50.972Z,2463.75
2018-07-14T09:26:50.892Z,3571.88
2018-07-14T09:28:43.701Z,3358.13
2018-07-14T09:29:43.656Z,3616.88
2018-07-14T09:31:36.478Z,3493.13
2018-07-14T09:32:36.483Z,3318.75
2018-07-14T09:34:29.257Z,3403.13
2018-07-14T09:35:29.179Z,2407.50
2018-07-14T09:37:21.977Z,1085.63
2018-07-14T09:38:21.927Z,1029.38
2018-07-14T09:40:14.747Z,961.88
2018-07-14T09:41:14.688Z,933.75
2018-07-14T09:43:07.478Z,894.38
2018-07-14T09:44:07.516Z,888.75
2018-07-14T09:46:00.266Z,849.38
2018-07-14T09:47:00.195Z,843.75
2018-07-14T09:48:53.017Z,815.63
2018-07-14T09:49:52.955Z,821.25
2018-07-14T09:51:45.814Z,787.50
2018-07-14T09:52:45.712Z,815.63
2018-07-14T09:54:37.574Z,815.63
2018-07-14T09:55:37.504Z,815.63
2018-07-14T09:57:30.300Z,826.88
2018-07-14T09:58:30.251Z,855.00
2018-07-14T10:00:23.057Z,905.63
2018-07-14T10:01:23.006Z,911.25
2018-07-14T10:03:15.834Z,967.50
2018-07-14T10:04:15.768Z,3420.00
2018-07-14T10:06:08.651Z,3476.25
2018-07-14T10:07:08.539Z,3313.13
2018-07-14T10:09:01.524Z,3223.13
2018-07-14T10:10:01.454Z,3375.00
2018-07-14T10:11:54.443Z,3341.25
2018-07-14T10:12:54.304Z,3313.13
2018-07-14T10:14:47.246Z,3121.88
2018-07-14T10:15:47.150Z,3178.13
2018-07-14T10:17:40.068Z,3228.75
2018-07-14T10:18:39.980Z,3054.38
2018-07-14T10:20:32.700Z,3195.00
2018-07-14T10:21:32.644Z,3240.00
2018-07-14T10:23:25.601Z,3183.75
2018-07-14T10:24:25.564Z,3313.13
2018-07-14T10:26:18.395Z,3183.75
2018-07-14T10:27:18.345Z,3076.88
2018-07-14T10:29:11.258Z,2986.88
2018-07-14T10:30:11.137Z,2970.00
2018-07-14T10:32:04.032Z,2925.00
2018-07-14T10:33:03.913Z,3060.00
2018-07-14T10:34:56.788Z,3093.75
2018-07-14T10:35:56.683Z,3054.38
2018-07-14T10:37:49.543Z,3060.00
2018-07-14T10:38:49.447Z,2902.50
2018-07-14T10:40:42.259Z,2835.00
2018-07-14T10:41:42.201Z,2745.00
2018-07-14T10:43:35.005Z,2773.13
2018-07-14T10:44:34.952Z,2801.25
2018-07-14T10:46:27.810Z,2874.38
2018-07-14T10:47:27.712Z,2835.00
2018-07-14T10:49:20.650Z,2823.75
2018-07-14T10:50:20.529Z,2806.88
2018-07-14T10:52:13.299Z,2806.88
2018-07-14T10:53:13.238Z,2750.63
2018-07-14T10:55:06.047Z,2660.63
2018-07-14T10:56:06.005Z,2525.63
2018-07-14T10:57:58.875Z,2745.00
2018-07-14T10:58:58.726Z,2677.50
2018-07-14T11:00:51.610Z,2581.88
2018-07-14T11:01:51.546Z,2778.75
2018-07-14T11:03:44.350Z,2385.00
2018-07-14T11:04:44.349Z,2182.50
2018-07-14T11:06:37.159Z,2446.88
2018-07-14T11:07:37.104Z,2520.00
2018-07-14T11:09:29.940Z,2430.00
2018-07-14T11:10:29.849Z,2514.38
2018-07-14T11:12:22.680Z,2289.38
2018-07-14T11:13:22.596Z,2379.38
2018-07-14T11:15:15.407Z,2379.38
2018-07-14T11:16:15.342Z,2362.50
2018-07-14T11:18:08.291Z,2328.75
2018-07-14T11:19:08.349Z,2323.13
2018-07-14T11:21:01.068Z,2300.63
2018-07-14T11:22:00.983Z,2390.63
2018-07-14T11:23:53.824Z,2148.75
2018-07-14T11:24:53.749Z,2216.25
2018-07-14T11:26:46.607Z,2255.63
2018-07-14T11:27:46.550Z,2165.63
2018-07-14T11:29:39.369Z,2036.25
2018-07-14T11:30:39.313Z,2053.13
2018-07-14T11:32:32.170Z,2103.75
2018-07-14T11:33:32.108Z,2064.38
2018-07-14T11:35:24.911Z,2025.00
2018-07-14T11:36:24.899Z,1968.75
2018-07-14T11:38:17.685Z,1974.38
2018-07-14T11:39:17.625Z,1951.88
2018-07-14T11:41:10.471Z,1901.25
2018-07-14T11:42:10.416Z,1890.00
2018-07-14T11:44:03.217Z,1912.50
2018-07-14T11:45:03.161Z,1906.88
2018-07-14T11:46:56.116Z,1845.00
2018-07-14T11:47:56.101Z,1822.50
2018-07-14T11:49:48.841Z,1788.75
2018-07-14T11:50:48.845Z,1811.25
2018-07-14T11:52:41.785Z,1766.25
2018-07-14T11:53:41.665Z,1743.75
2018-07-14T11:55:34.480Z,1659.38
2018-07-14T11:56:34.405Z,1693.13
2018-07-14T11:58:27.225Z,1591.88
2018-07-14T11:59:27.206Z,1569.38
2018-07-14T12:01:19.992Z,635.63
2018-07-14T12:02:19.903Z,427.50
2018-07-14T12:04:12.783Z,405.00
2018-07-14T12:05:12.648Z,399.38
2018-07-14T12:07:05.554Z,388.13
2018-07-14T12:08:05.460Z,382.50
2018-07-14T12:09:58.317Z,371.25
2018-07-14T12:10:58.236Z,365.63
2018-07-14T12:12:51.202Z,365.63
2018-07-14T12:13:51.014Z,360.00
2018-07-14T12:15:43.875Z,365.63
2018-07-14T12:16:43.780Z,348.75
2018-07-14T12:18:36.590Z,343.13
2018-07-14T12:19:36.584Z,337.50
2018-07-14T12:21:29.362Z,337.50
2018-07-14T12:22:29.295Z,348.75
2018-07-14T12:24:22.102Z,354.38
2018-07-14T12:25:22.056Z,354.38
2018-07-14T12:27:14.842Z,343.13
2018-07-14T12:28:14.772Z,337.50
2018-07-14T12:30:07.631Z,337.50
2018-07-14T12:31:07.641Z,337.50
2018-07-14T12:33:00.890Z,337.50
2018-07-14T12:34:00.837Z,331.88
2018-07-14T12:35:53.657Z,337.50
2018-07-14T12:36:53.562Z,348.75
2018-07-14T12:38:46.397Z,354.38
2018-07-14T12:39:46.335Z,343.13
2018-07-14T12:41:39.154Z,343.13
2018-07-14T12:42:39.080Z,343.13
2018-07-14T12:44:31.910Z,337.50
2018-07-14T12:45:31.831Z,343.13
2018-07-14T12:47:24.657Z,354.38
2018-07-14T12:48:24.590Z,331.88
2018-07-14T12:50:17.372Z,388.13
2018-07-14T12:51:17.325Z,371.25
2018-07-14T12:53:10.161Z,360.00
2018-07-14T12:54:10.124Z,365.63
2018-07-14T12:56:02.920Z,360.00
2018-07-14T12:57:02.838Z,354.38
2018-07-14T12:58:55.639Z,354.38
2018-07-14T12:59:55.562Z,354.38
2018-07-14T13:01:48.417Z,354.38
2018-07-14T13:02:48.330Z,360.00
2018-07-14T13:04:41.099Z,354.38
2018-07-14T13:05:41.035Z,354.38
2018-07-14T13:07:33.984Z,371.25
2018-07-14T13:08:33.784Z,371.25
2018-07-14T13:10:26.579Z,360.00
2018-07-14T13:11:26.484Z,360.00
2018-07-14T13:13:19.320Z,365.63
2018-07-14T13:14:19.226Z,354.38
2018-07-14T13:16:12.015Z,354.38
2018-07-14T13:17:12.021Z,360.00
2018-07-14T13:19:04.803Z,354.38
2018-07-14T13:20:04.691Z,354.38
2018-07-14T13:21:57.494Z,360.00
2018-07-14T13:22:57.452Z,348.75
2018-07-14T13:24:50.331Z,348.75
2018-07-14T13:25:50.169Z,354.38
2018-07-14T13:27:42.948Z,360.00
2018-07-14T13:28:42.867Z,365.63
2018-07-14T13:30:35.798Z,360.00
2018-07-14T13:31:35.606Z,360.00
2018-07-14T13:33:28.462Z,354.38
2018-07-14T13:34:28.374Z,348.75
2018-07-14T13:36:21.227Z,354.38
2018-07-14T13:37:21.125Z,365.63
2018-07-14T13:39:14.101Z,354.38
2018-07-14T13:40:13.965Z,348.75
2018-07-14T13:42:06.687Z,348.75
2018-07-14T13:43:06.604Z,354.38
2018-07-14T13:44:59.415Z,348.75
2018-07-14T13:45:59.368Z,348.75
2018-07-14T13:47:52.139Z,343.13
2018-07-14T13:48:52.070Z,337.50
2018-07-14T13:50:44.959Z,337.50
2018-07-14T13:51:44.836Z,337.50
2018-07-14T13:53:37.809Z,337.50
2018-07-14T13:54:37.653Z,337.50
2018-07-14T13:56:30.499Z,337.50
2018-07-14T13:57:30.421Z,343.13
2018-07-14T13:59:23.219Z,343.13
2018-07-14T14:00:23.155Z,337.50
2018-07-14T14:02:15.950Z,337.50
2018-07-14T14:03:15.868Z,337.50
2018-07-14T14:05:08.698Z,337.50
2018-07-14T14:06:08.603Z,337.50
2018-07-14T14:08:01.675Z,337.50
2018-07-14T14:09:01.408Z,337.50
2018-07-14T14:10:54.200Z,331.88
2018-07-14T14:11:54.119Z,331.88
2018-07-14T14:13:46.927Z,331.88
2018-07-14T14:14:46.854Z,331.88
2018-07-14T14:16:39.641Z,331.88
2018-07-14T14:17:39.586Z,331.88
2018-07-14T14:19:32.387Z,331.88
2018-07-14T14:20:32.305Z,331.88
2018-07-14T14:22:25.177Z,331.88
2018-07-14T14:23:25.099Z,337.50
2018-07-14T14:25:17.955Z,331.88
2018-07-14T14:26:17.867Z,331.88
2018-07-14T14:28:10.665Z,331.88
2018-07-14T14:29:10.611Z,331.88
2018-07-14T14:31:03.385Z,331.88
2018-07-14T14:32:03.325Z,331.88
2018-07-14T14:33:56.121Z,331.88
2018-07-14T14:34:56.065Z,331.88
2018-07-14T14:36:48.885Z,337.50
2018-07-14T14:37:48.805Z,331.88
2018-07-14T14:39:41.603Z,331.88
2018-07-14T14:40:41.531Z,331.88
2018-07-14T14:42:34.338Z,331.88
2018-07-14T14:43:34.262Z,331.88
2018-07-14T14:45:27.055Z,331.88
2018-07-14T14:46:26.998Z,331.88
2018-07-14T14:48:20.048Z,331.88
2018-07-14T14:49:19.834Z,348.75
2018-07-14T14:51:12.664Z,331.88
2018-07-14T14:52:12.607Z,331.88
2018-07-14T14:54:05.408Z,331.88
2018-07-14T14:55:05.316Z,331.88
2018-07-14T14:56:59.050Z,337.50
2018-07-14T14:57:58.385Z,337.50
2018-07-14T14:59:51.768Z,337.50
2018-07-14T15:00:51.573Z,337.50
2018-07-14T15:02:43.977Z,337.50
2018-07-14T15:03:43.998Z,343.13
2018-07-14T15:05:37.667Z,343.13
2018-07-14T15:06:37.630Z,337.50
2018-07-14T15:08:30.379Z,337.50
2018-07-14T15:09:30.317Z,343.13
2018-07-14T15:11:23.085Z,337.50
2018-07-14T15:12:23.029Z,337.50
2018-07-14T15:14:15.841Z,337.50
2018-07-14T15:15:15.780Z,337.50
2018-07-14T15:17:08.675Z,337.50
2018-07-14T15:18:08.614Z,337.50
2018-07-14T15:20:01.403Z,337.50
2018-07-14T15:21:01.331Z,337.50
2018-07-14T15:22:54.122Z,337.50
2018-07-14T15:23:54.044Z,331.88
2018-07-14T15:25:46.940Z,337.50
2018-07-14T15:26:46.834Z,331.88
2018-07-14T15:28:39.728Z,331.88
2018-07-14T15:29:39.624Z,331.88
2018-07-14T15:31:32.450Z,326.25
2018-07-14T15:32:32.449Z,326.25
2018-07-14T15:34:25.169Z,326.25
2018-07-14T15:35:25.090Z,326.25
2018-07-14T15:37:17.913Z,331.88
2018-07-14T15:38:17.850Z,320.63
2018-07-14T15:40:10.676Z,320.63
2018-07-14T15:41:10.591Z,320.63
2018-07-14T15:43:03.550Z,320.63
2018-07-14T15:44:03.412Z,320.63
2018-07-14T15:45:56.206Z,315.00
2018-07-14T15:46:56.139Z,320.63
2018-07-14T15:48:49.011Z,315.00
2018-07-14T15:49:48.894Z,309.38
2018-07-14T15:51:41.705Z,309.38
2018-07-14T15:52:41.641Z,309.38
2018-07-14T15:54:34.677Z,309.38
2018-07-14T15:55:34.405Z,303.75
2018-07-14T15:57:27.224Z,298.13
2018-07-14T15:58:27.166Z,298.13
2018-07-14T16:00:20.064Z,303.75
2018-07-14T16:01:19.924Z,298.13
2018-07-14T16:03:12.791Z,298.13
2018-07-14T16:04:12.706Z,298.13
2018-07-14T16:06:05.499Z,298.13
2018-07-14T16:07:05.438Z,298.13
2018-07-14T16:08:58.241Z,298.13
2018-07-14T16:09:58.175Z,298.13
2018-07-14T16:11:50.985Z,298.13
2018-07-14T16:12:50.914Z,292.50
2018-07-14T16:14:43.761Z,292.50
2018-07-14T16:15:43.683Z,292.50
2018-07-14T16:17:36.481Z,286.88
2018-07-14T16:18:36.396Z,286.88
2018-07-14T16:20:29.209Z,286.88
2018-07-14T16:21:29.150Z,281.25
2018-07-14T16:23:21.988Z,281.25
2018-07-14T16:24:21.855Z,281.25
2018-07-14T16:26:14.696Z,281.25
2018-07-14T16:27:14.589Z,281.25
2018-07-14T16:29:08.603Z,281.25
2018-07-14T16:30:08.248Z,275.63
2018-07-14T16:32:01.126Z,275.63
2018-07-14T16:33:00.972Z,275.63
2018-07-14T16:34:53.748Z,270.00
2018-07-14T16:35:53.725Z,270.00
2018-07-14T16:37:46.461Z,270.00
2018-07-14T16:38:46.403Z,264.38
2018-07-14T16:40:39.273Z,264.38
2018-07-14T16:41:39.125Z,258.75
2018-07-14T16:43:31.953Z,258.75
2018-07-14T16:44:31.863Z,253.13
2018-07-14T16:46:24.711Z,253.13
2018-07-14T16:47:24.621Z,253.13
2018-07-14T16:49:17.453Z,253.13
2018-07-14T16:50:17.526Z,258.75
2018-07-14T16:52:10.344Z,281.25
2018-07-14T16:53:10.227Z,298.13
2018-07-14T16:55:03.063Z,292.50
2018-07-14T16:56:02.980Z,253.13
2018-07-14T16:57:55.764Z,236.25
2018-07-14T16:58:55.813Z,236.25
2018-07-14T17:00:48.525Z,236.25
2018-07-14T17:01:48.523Z,230.63
2018-07-14T17:03:41.277Z,225.00
2018-07-14T17:04:41.215Z,225.00
2018-07-14T17:06:33.980Z,219.38
2018-07-14T17:07:33.916Z,219.38
2018-07-14T17:09:26.790Z,213.75
2018-07-14T17:10:26.833Z,213.75
2018-07-14T17:12:19.549Z,213.75
2018-07-14T17:13:19.491Z,208.13
2018-07-14T17:15:12.286Z,208.13
2018-07-14T17:16:12.209Z,208.13
2018-07-14T17:18:05.007Z,208.13
2018-07-14T17:19:04.951Z,208.13
2018-07-14T17:20:57.922Z,213.75
2018-07-14T17:21:57.858Z,202.50
2018-07-14T17:23:50.653Z,196.88
2018-07-14T17:24:50.566Z,196.88
2018-07-14T17:26:43.362Z,191.25
2018-07-14T17:27:43.302Z,191.25
2018-07-14T17:29:36.098Z,185.63
2018-07-14T17:30:36.033Z,185.63
2018-07-14T17:32:28.892Z,180.00
2018-07-14T17:33:28.792Z,180.00
2018-07-14T17:35:21.571Z,174.38
2018-07-14T17:36:21.483Z,174.38
2018-07-14T17:38:14.326Z,174.38
2018-07-14T17:39:14.208Z,174.38
2018-07-14T17:41:07.072Z,168.75
2018-07-14T17:42:06.968Z,168.75
2018-07-14T17:43:59.870Z,163.13
2018-07-14T17:44:59.654Z,163.13
2018-07-14T17:46:52.466Z,157.50
2018-07-14T17:47:52.403Z,157.50
2018-07-14T17:49:45.469Z,151.88
2018-07-14T17:50:45.392Z,151.88
2018-07-14T17:52:38.186Z,146.25
2018-07-14T17:53:38.143Z,146.25
2018-07-14T17:55:30.921Z,140.63
2018-07-14T17:56:30.853Z,140.63
2018-07-14T17:58:23.634Z,135.00
2018-07-14T17:59:23.581Z,135.00
2018-07-14T18:01:16.360Z,135.00